createdAt,value
2019-03-04T00:04:36.029Z,-9.75
2019-03-04T00:07:05.423Z,-9.71
2019-03-04T00:13:23.821Z,-9.70
2019-03-04T00:15:53.208Z,-9.69
2019-03-04T00:19:01.884Z,-9.66
2019-03-04T00:21:31.900Z,-9.70
2019-03-04T00:24:01.419Z,-9.79
2019-03-04T00:26:31.017Z,-9.85
2019-03-04T00:29:00.469Z,-9.95
2019-03-04T00:31:30.463Z,-9.89
2019-03-04T00:34:40.847Z,-9.88
2019-03-04T00:37:10.260Z,-9.84
2019-03-04T00:42:35.075Z,-9.87
2019-03-04T00:54:22.955Z,-9.80
2019-03-04T01:03:14.460Z,-9.99
2019-03-04T01:05:44.115Z,-10.04
2019-03-04T01:08:14.293Z,-9.96
2019-03-04T01:10:43.743Z,-9.97
2019-03-04T01:13:13.245Z,-9.94
2019-03-04T01:15:42.858Z,-9.89
2019-03-04T01:18:12.362Z,-9.84
2019-03-04T01:26:58.295Z,-9.65
2019-03-04T01:29:28.518Z,-9.58
2019-03-04T01:32:40.223Z,-9.55
2019-03-04T01:38:25.721Z,-9.55
2019-03-04T01:40:55.094Z,-9.51
2019-03-04T01:43:24.816Z,-9.48
2019-03-04T01:45:54.359Z,-9.42
2019-03-04T01:48:23.750Z,-9.41
2019-03-04T01:51:12.274Z,-9.50
2019-03-04T01:53:41.831Z,-9.51
2019-03-04T01:56:50.521Z,-9.54
2019-03-04T02:02:22.327Z,-9.49
2019-03-04T02:04:51.858Z,-9.49
2019-03-04T02:07:21.586Z,-9.51
2019-03-04T02:09:51.118Z,-9.50
2019-03-04T02:13:00.020Z,-9.49
2019-03-04T02:15:29.953Z,-9.48
2019-03-04T02:18:18.753Z,-9.43
2019-03-04T02:20:49.239Z,-9.40
2019-03-04T02:23:18.690Z,-9.36
2019-03-04T02:29:03.843Z,-9.44
2019-03-04T02:31:34.047Z,-9.40
2019-03-04T02:34:03.614Z,-9.46
2019-03-04T02:37:13.003Z,-9.57
2019-03-04T02:42:50.975Z,-9.46
2019-03-04T02:45:32.535Z,-9.46
2019-03-04T02:51:04.217Z,-9.42
2019-03-04T02:53:33.658Z,-9.35
2019-03-04T02:56:02.980Z,-9.31
2019-03-04T02:59:12.017Z,-9.28
2019-03-04T03:01:42.012Z,-9.23
2019-03-04T03:04:11.392Z,-9.25
2019-03-04T03:09:54.873Z,-9.24
2019-03-04T03:12:24.378Z,-9.22
2019-03-04T03:14:54.214Z,-9.19
2019-03-04T03:21:17.628Z,-9.18
2019-03-04T03:24:06.030Z,-9.19
2019-03-04T03:26:56.841Z,-9.15
2019-03-04T03:29:26.734Z,-9.16
2019-03-04T03:31:56.265Z,-9.15
2019-03-04T03:34:26.123Z,-9.17
2019-03-04T03:36:55.590Z,-9.15
2019-03-04T03:39:25.107Z,-9.12
2019-03-04T03:41:54.598Z,-9.10
2019-03-04T03:47:19.935Z,-9.08
2019-03-04T03:49:49.345Z,-9.07
2019-03-04T03:55:33.205Z,-9.05
2019-03-04T03:58:24.973Z,-9.05
2019-03-04T04:04:08.763Z,-9.03
2019-03-04T04:06:38.199Z,-9.02
2019-03-04T04:12:22.844Z,-9.02
2019-03-04T04:15:11.669Z,-9.02
2019-03-04T04:17:41.189Z,-9.00
2019-03-04T04:23:25.733Z,-8.99
2019-03-04T04:25:55.751Z,-8.98
2019-03-04T04:28:26.286Z,-8.96
2019-03-04T04:34:03.444Z,-8.94
2019-03-04T04:36:32.831Z,-8.98
2019-03-04T04:39:02.299Z,-8.97
2019-03-04T04:41:32.396Z,-8.95
2019-03-04T04:44:41.101Z,-8.93
2019-03-04T04:47:11.558Z,-8.91
2019-03-04T04:49:40.962Z,-8.94
2019-03-04T04:52:10.522Z,-8.91
2019-03-04T04:54:40.005Z,-8.91
2019-03-04T04:57:09.366Z,-8.91
2019-03-04T05:00:18.080Z,-8.93
2019-03-04T05:08:45.747Z,-8.91
2019-03-04T05:11:15.534Z,-8.91
2019-03-04T05:14:24.486Z,-8.88
2019-03-04T05:16:53.922Z,-8.83
2019-03-04T05:22:18.222Z,-8.81
2019-03-04T05:27:36.469Z,-8.81
2019-03-04T05:30:45.145Z,-8.78
2019-03-04T05:39:31.053Z,-8.68
2019-03-04T05:42:39.985Z,-8.67
2019-03-04T05:48:07.791Z,-8.63
2019-03-04T05:50:39.486Z,-8.63
2019-03-04T05:53:48.603Z,-8.60
2019-03-04T05:56:18.820Z,-8.57
2019-03-04T06:05:12.097Z,-8.50
2019-03-04T06:07:49.259Z,-8.48
2019-03-04T06:10:38.104Z,-8.46
2019-03-04T06:13:09.796Z,-8.43
2019-03-04T06:18:34.904Z,-8.44
2019-03-04T06:21:04.327Z,-8.37
2019-03-04T06:26:23.923Z,-8.34
2019-03-04T06:32:02.269Z,-8.25
2019-03-04T06:37:58.237Z,-8.19
2019-03-04T06:40:46.840Z,-8.19
2019-03-04T06:43:55.759Z,-8.14
2019-03-04T06:46:25.879Z,-8.14
2019-03-04T06:49:14.263Z,-8.17
2019-03-04T06:55:13.597Z,-8.21
2019-03-04T06:57:47.697Z,-8.13
2019-03-04T07:00:56.457Z,-8.07
2019-03-04T07:06:45.976Z,-8.33
2019-03-04T07:12:16.242Z,-8.32
2019-03-04T07:20:49.621Z,-7.86
2019-03-04T07:23:58.628Z,-7.71
2019-03-04T07:27:07.460Z,-7.62
2019-03-04T07:32:52.053Z,-7.50
2019-03-04T07:35:21.677Z,-7.39
2019-03-04T07:38:35.585Z,-7.28
2019-03-04T07:41:05.203Z,-7.14
2019-03-04T07:43:36.101Z,-7.15
2019-03-04T07:46:45.790Z,-7.05
2019-03-04T07:49:15.641Z,-6.90
2019-03-04T07:51:45.169Z,-6.66
2019-03-04T07:54:15.122Z,-6.57
2019-03-04T07:56:44.644Z,-6.43
2019-03-04T07:59:14.077Z,-6.31
2019-03-04T08:07:55.074Z,-5.70
2019-03-04T08:11:03.145Z,-5.44
2019-03-04T08:14:05.591Z,-5.22
2019-03-04T08:20:08.397Z,-4.65
2019-03-04T08:22:38.986Z,-4.15
2019-03-04T08:25:35.085Z,-4.15
2019-03-04T08:34:00.468Z,-3.37
2019-03-04T08:36:29.784Z,-3.49
2019-03-04T08:39:38.632Z,-3.61
2019-03-04T08:42:27.464Z,-3.71
2019-03-04T08:51:02.218Z,-4.15
2019-03-04T08:53:52.027Z,-4.34
2019-03-04T08:56:21.772Z,-4.69
2019-03-04T08:58:51.319Z,-4.59
2019-03-04T09:02:00.093Z,-4.28
2019-03-04T09:04:29.823Z,-3.49
2019-03-04T09:15:59.764Z,2.85
2019-03-04T09:19:08.565Z,7.17
2019-03-04T09:21:38.024Z,9.78
2019-03-04T09:24:08.013Z,11.94
2019-03-04T09:27:16.713Z,13.41
2019-03-04T09:32:26.225Z,10.15
2019-03-04T09:35:14.625Z,8.38
2019-03-04T09:38:23.769Z,6.82
2019-03-04T09:40:54.182Z,5.29
2019-03-04T09:43:23.613Z,4.17
2019-03-04T09:45:53.696Z,3.73
2019-03-04T09:48:23.233Z,3.05
2019-03-04T09:50:52.644Z,2.16
2019-03-04T09:53:22.151Z,2.12
2019-03-04T09:55:51.766Z,4.28
2019-03-04T09:58:21.676Z,5.67
2019-03-04T10:01:13.693Z,7.56
2019-03-04T10:04:21.211Z,8.54
2019-03-04T10:07:33.171Z,12.55
2019-03-04T10:10:27.668Z,14.04
2019-03-04T10:13:20.197Z,8.53
2019-03-04T10:16:18.659Z,5.07
2019-03-04T10:19:22.533Z,3.31
2019-03-04T10:22:13.981Z,1.84
2019-03-04T10:25:21.737Z,0.82
2019-03-04T10:28:29.198Z,6.07
2019-03-04T10:31:30.307Z,7.87
2019-03-04T10:34:39.069Z,9.81
2019-03-04T10:37:46.780Z,11.88
2019-03-04T10:40:58.350Z,14.17
2019-03-04T10:44:23.051Z,15.76
2019-03-04T10:47:11.847Z,16.27
2019-03-04T10:55:52.127Z,15.30
2019-03-04T10:58:22.039Z,16.28
2019-03-04T11:00:51.471Z,18.16
2019-03-04T11:03:21.119Z,17.51
2019-03-04T11:06:29.806Z,16.88
2019-03-04T11:08:59.590Z,15.84
2019-03-04T11:11:30.099Z,16.88
2019-03-04T11:14:00.357Z,14.15
2019-03-04T11:16:49.099Z,12.91
2019-03-04T11:19:57.830Z,13.93
2019-03-04T11:25:42.779Z,16.75
2019-03-04T11:31:20.088Z,13.22
2019-03-04T11:37:04.819Z,12.78
2019-03-04T11:39:53.388Z,13.24
2019-03-04T11:42:23.216Z,13.97
2019-03-04T11:44:52.519Z,14.12
2019-03-04T11:47:25.932Z,14.57
2019-03-04T11:49:55.448Z,12.98
2019-03-04T11:52:24.829Z,12.29
2019-03-04T11:54:54.297Z,10.12
2019-03-04T11:57:23.815Z,7.96
2019-03-04T11:59:53.286Z,6.47
2019-03-04T12:02:24.610Z,5.72
2019-03-04T12:04:54.010Z,3.65
2019-03-04T12:07:23.488Z,2.91
2019-03-04T12:09:53.816Z,2.71
2019-03-04T12:12:23.212Z,3.42
2019-03-04T12:14:52.593Z,4.10
2019-03-04T12:17:22.476Z,5.38
2019-03-04T12:19:52.021Z,5.82
2019-03-04T12:22:21.525Z,6.82
2019-03-04T12:24:50.831Z,8.12
2019-03-04T12:27:20.291Z,9.42
2019-03-04T12:29:49.816Z,8.87
2019-03-04T12:32:22.963Z,8.58
2019-03-04T12:34:52.518Z,9.28
2019-03-04T12:37:21.898Z,10.45
2019-03-04T12:39:51.705Z,10.10
2019-03-04T12:42:21.116Z,11.40
2019-03-04T12:44:50.824Z,12.05
2019-03-04T12:47:20.289Z,13.06
2019-03-04T12:49:50.430Z,14.26
2019-03-04T12:52:19.913Z,13.19
2019-03-04T12:54:49.326Z,13.24
2019-03-04T12:57:19.076Z,13.07
2019-03-04T13:00:28.009Z,10.76
2019-03-04T13:02:58.185Z,10.25
2019-03-04T13:05:27.818Z,10.62
2019-03-04T13:07:57.287Z,7.80
2019-03-04T13:10:28.075Z,5.23
2019-03-04T13:12:57.515Z,7.60
2019-03-04T13:15:27.469Z,9.69
2019-03-04T13:17:58.375Z,11.23
2019-03-04T13:20:28.094Z,11.87
2019-03-04T13:22:57.475Z,10.21
2019-03-04T13:25:26.862Z,10.19
2019-03-04T13:28:07.491Z,11.17
2019-03-04T13:30:28.727Z,12.02
2019-03-04T13:32:58.235Z,12.38
2019-03-04T13:35:27.670Z,11.81
2019-03-04T13:37:57.414Z,10.69
2019-03-04T13:43:41.878Z,5.70
2019-03-04T13:46:11.552Z,3.95
2019-03-04T13:48:40.933Z,2.71
2019-03-04T13:51:11.206Z,1.83
2019-03-04T13:53:40.957Z,1.37
2019-03-04T13:56:10.745Z,0.92
2019-03-04T13:58:40.210Z,0.30
2019-03-04T14:01:09.721Z,-0.30
2019-03-04T14:03:39.440Z,-0.89
2019-03-04T14:06:09.164Z,-0.98
2019-03-04T14:08:38.556Z,-1.03
2019-03-04T14:11:09.524Z,-0.97
2019-03-04T14:13:38.924Z,-0.94
2019-03-04T14:16:08.859Z,-1.03
2019-03-04T14:18:40.275Z,-1.23
2019-03-04T14:21:10.438Z,-1.42
2019-03-04T14:23:39.872Z,-1.61
2019-03-04T14:26:09.333Z,-1.51
2019-03-04T14:28:39.202Z,-1.55
2019-03-04T14:31:08.615Z,-1.48
2019-03-04T14:33:39.342Z,-1.63
2019-03-04T14:36:08.739Z,-1.58
2019-03-04T14:38:38.213Z,-1.52
2019-03-04T14:41:07.727Z,-1.52
2019-03-04T14:43:37.493Z,-1.64
2019-03-04T14:46:06.931Z,-1.75
2019-03-04T14:48:36.396Z,-1.84
2019-03-04T14:51:06.169Z,-2.04
2019-03-04T14:53:35.825Z,-2.21
2019-03-04T14:56:05.936Z,-2.29
2019-03-04T14:58:35.532Z,-2.32
2019-03-04T15:01:05.856Z,-2.50
2019-03-04T15:03:35.235Z,-2.50
2019-03-04T15:06:07.173Z,-2.66
2019-03-04T15:08:36.173Z,-2.66
2019-03-04T15:11:05.905Z,-2.78
2019-03-04T15:13:35.417Z,-2.90
2019-03-04T15:16:06.232Z,-3.01
2019-03-04T15:18:35.724Z,-3.09
2019-03-04T15:21:06.668Z,-3.28
2019-03-04T15:23:36.086Z,-3.41
2019-03-04T15:26:06.406Z,-3.41
2019-03-04T15:28:35.815Z,-3.46
2019-03-04T15:31:05.163Z,-3.58
2019-03-04T15:33:34.704Z,-3.62
2019-03-04T15:36:04.187Z,-3.70
2019-03-04T15:38:33.921Z,-3.78
2019-03-04T15:41:03.445Z,-3.86
2019-03-04T15:43:33.141Z,-3.96
2019-03-04T15:46:03.429Z,-4.03
2019-03-04T15:48:33.667Z,-4.13
2019-03-04T15:51:03.594Z,-4.23
2019-03-04T15:53:33.971Z,-4.33
2019-03-04T15:56:03.349Z,-4.44
2019-03-04T15:58:33.116Z,-4.52
2019-03-04T16:01:04.636Z,-4.59
2019-03-04T16:03:36.631Z,-4.71
2019-03-04T16:06:06.576Z,-4.80
2019-03-04T16:08:36.119Z,-4.89
2019-03-04T16:11:06.709Z,-4.98
2019-03-04T16:13:36.229Z,-5.06
2019-03-04T16:16:05.683Z,-5.16
2019-03-04T16:18:35.248Z,-5.27
2019-03-04T16:21:04.834Z,-5.33
2019-03-04T16:23:34.215Z,-5.55
2019-03-04T16:26:10.522Z,-5.61
2019-03-04T16:28:40.037Z,-5.61
2019-03-04T16:31:09.488Z,-5.79
2019-03-04T16:33:39.525Z,-5.92
2019-03-04T16:36:09.349Z,-5.99
2019-03-04T16:38:38.728Z,-5.99
2019-03-04T16:41:08.941Z,-6.08
2019-03-04T16:43:38.524Z,-6.21
2019-03-04T16:46:08.333Z,-6.27
2019-03-04T16:48:38.078Z,-6.41
2019-03-04T16:51:08.015Z,-6.49
2019-03-04T16:53:37.781Z,-6.58
2019-03-04T16:56:07.250Z,-6.58
2019-03-04T16:58:37.034Z,-6.69
2019-03-04T17:01:09.776Z,-6.76
2019-03-04T17:03:39.355Z,-6.76
2019-03-04T17:06:10.691Z,-6.95
2019-03-04T17:08:41.934Z,-6.95
2019-03-04T17:11:11.959Z,-7.02
2019-03-04T17:13:41.708Z,-7.12
2019-03-04T17:16:11.234Z,-7.28
2019-03-04T17:18:40.583Z,-7.28
2019-03-04T17:21:10.439Z,-7.34
2019-03-04T17:23:40.600Z,-7.42
2019-03-04T17:26:10.111Z,-7.48
2019-03-04T17:28:39.908Z,-7.54
2019-03-04T17:31:10.110Z,-7.67
2019-03-04T17:33:40.421Z,-7.81
2019-03-04T17:36:14.062Z,-7.98
2019-03-04T17:38:46.124Z,-8.08
2019-03-04T17:41:16.371Z,-8.17
2019-03-04T17:43:46.126Z,-8.26
2019-03-04T17:46:15.539Z,-8.31
2019-03-04T17:48:45.353Z,-8.33
2019-03-04T17:51:16.049Z,-8.38
2019-03-04T17:53:45.639Z,-8.37
2019-03-04T17:56:16.785Z,-8.35
2019-03-04T17:58:46.936Z,-8.37
2019-03-04T18:01:16.403Z,-8.43
2019-03-04T18:03:45.783Z,-8.47
2019-03-04T18:06:15.292Z,-8.50
2019-03-04T18:08:44.649Z,-8.54
2019-03-04T18:11:14.045Z,-8.49
2019-03-04T18:13:43.469Z,-8.48
2019-03-04T18:16:12.833Z,-8.48
2019-03-04T18:18:42.566Z,-9.43
2019-03-04T18:21:12.003Z,-8.57
2019-03-04T18:23:41.571Z,-8.62
2019-03-04T18:26:18.017Z,-8.75
2019-03-04T18:29:37.235Z,-8.86
2019-03-04T18:32:38.498Z,-8.94
2019-03-04T18:35:51.702Z,-9.06
2019-03-04T18:38:35.368Z,-9.15
2019-03-04T18:41:28.397Z,-9.20
2019-03-04T18:44:37.982Z,-9.23
2019-03-04T18:47:29.451Z,-9.25
2019-03-04T18:49:58.850Z,-9.30
2019-03-04T18:52:28.699Z,-9.26
2019-03-04T18:55:37.685Z,-9.27
2019-03-04T18:58:11.341Z,-9.35
2019-03-04T19:00:43.149Z,-9.42
2019-03-04T19:03:24.997Z,-9.43
2019-03-04T19:05:54.610Z,-9.45
2019-03-04T19:14:14.287Z,-9.62
2019-03-04T19:19:32.523Z,-9.77
2019-03-04T19:22:01.918Z,-9.84
2019-03-04T19:24:31.893Z,-9.89
2019-03-04T19:27:01.479Z,-9.91
2019-03-04T19:29:30.911Z,-10.00
2019-03-04T19:32:03.196Z,-10.07
2019-03-04T19:34:32.610Z,-10.16
2019-03-04T19:37:02.316Z,-10.21
2019-03-04T19:39:31.944Z,-10.28
2019-03-04T19:42:01.342Z,-10.34
2019-03-04T19:44:31.350Z,-10.37
2019-03-04T19:47:01.879Z,-10.33
2019-03-04T19:49:31.366Z,-10.29
2019-03-04T19:52:00.815Z,-10.26
2019-03-04T19:54:30.509Z,-10.25
2019-03-04T19:57:00.306Z,-10.22
2019-03-04T19:59:29.915Z,-10.23
2019-03-04T20:01:59.588Z,-10.20
2019-03-04T20:04:29.336Z,-10.13
2019-03-04T20:06:58.879Z,-10.01
2019-03-04T20:09:28.695Z,-9.89
2019-03-04T20:11:58.132Z,-9.78
2019-03-04T20:14:27.477Z,-9.67
2019-03-04T20:16:57.543Z,-9.58
2019-03-04T20:19:26.901Z,-9.50
2019-03-04T20:21:56.446Z,-9.48
2019-03-04T20:24:26.294Z,-9.41
2019-03-04T20:26:55.714Z,-9.38
2019-03-04T20:30:04.580Z,-9.35
2019-03-04T20:36:25.951Z,-9.43
2019-03-04T20:38:55.614Z,-9.52
2019-03-04T20:44:21.422Z,-9.60
2019-03-04T20:49:58.635Z,-9.70
2019-03-04T20:52:28.131Z,-9.75
2019-03-04T20:57:53.603Z,-9.76
2019-03-04T21:01:03.029Z,-9.76
2019-03-04T21:03:35.294Z,-9.80
2019-03-04T21:06:04.767Z,-9.79
2019-03-04T21:08:34.126Z,-9.81
2019-03-04T21:11:03.731Z,-9.85
2019-03-04T21:13:35.889Z,-9.88
2019-03-04T21:16:06.474Z,-9.89
2019-03-04T21:18:36.736Z,-9.93
2019-03-04T21:21:06.674Z,-9.94
2019-03-04T21:23:36.173Z,-9.99
2019-03-04T21:26:21.058Z,-9.99
2019-03-04T21:29:40.606Z,-10.03
2019-03-04T21:32:37.775Z,-10.05
2019-03-04T21:36:06.257Z,-10.09
2019-03-04T21:39:15.791Z,-10.11
2019-03-04T21:42:30.917Z,-10.16
2019-03-04T21:45:13.810Z,-10.22
2019-03-04T21:47:48.176Z,-10.30
2019-03-04T21:50:20.821Z,-10.33
2019-03-04T21:59:34.854Z,-10.47
2019-03-04T22:02:43.781Z,-10.44
2019-03-04T22:05:55.370Z,-10.46
2019-03-04T22:11:34.112Z,-10.41
2019-03-04T22:14:04.055Z,-10.38
2019-03-04T22:16:34.720Z,-10.36
2019-03-04T22:19:43.420Z,-10.33
2019-03-04T22:22:13.061Z,-10.31
2019-03-04T22:24:42.524Z,-10.27
2019-03-04T22:27:11.990Z,-10.23
2019-03-04T22:30:20.768Z,-10.23
2019-03-04T22:36:05.237Z,-10.25
2019-03-04T22:41:43.675Z,-10.21
2019-03-04T22:44:13.073Z,-10.19
2019-03-04T22:46:42.578Z,-10.14
2019-03-04T22:49:51.278Z,-10.12
2019-03-04T22:58:43.716Z,-10.09
2019-03-04T23:01:43.810Z,-10.12
2019-03-04T23:04:51.267Z,-10.13
2019-03-04T23:08:02.077Z,-10.16
2019-03-04T23:11:29.833Z,-10.18
2019-03-04T23:14:37.400Z,-10.28
2019-03-04T23:17:07.353Z,-10.23
2019-03-04T23:23:03.070Z,-10.20
2019-03-04T23:25:32.454Z,-10.22
2019-03-04T23:28:01.827Z,-10.24
2019-03-04T23:30:31.555Z,-10.22
2019-03-04T23:39:17.459Z,-10.20
2019-03-04T23:42:26.214Z,-10.19
2019-03-04T23:44:55.646Z,-10.12
2019-03-04T23:47:37.439Z,-10.13
2019-03-04T23:50:36.535Z,-10.11
2019-03-04T23:53:05.956Z,-10.15
2019-03-04T23:59:11.203Z,-10.22
